createdAt,value
2024-01-24T00:03:47.068Z,2.73
2024-01-24T00:13:52.014Z,2.82
2024-01-24T00:23:54.942Z,2.86
2024-01-24T00:33:59.602Z,2.90
2024-01-24T00:44:02.551Z,2.92
2024-01-24T00:54:07.176Z,2.93
2024-01-24T01:04:10.573Z,2.89
2024-01-24T01:14:14.923Z,2.86
2024-01-24T01:24:17.900Z,2.96
2024-01-24T01:34:22.355Z,2.99
2024-01-24T01:44:25.426Z,3.07
2024-01-24T01:54:29.815Z,3.11
2024-01-24T02:04:33.107Z,3.33
2024-01-24T02:14:37.530Z,3.31
2024-01-24T02:24:41.882Z,3.45
2024-01-24T02:34:45.484Z,3.45
2024-01-24T02:44:49.804Z,3.37
2024-01-24T02:54:52.783Z,3.55
2024-01-24T03:04:57.082Z,3.62
2024-01-24T03:15:00.002Z,3.70
2024-01-24T03:25:04.468Z,3.76
2024-01-24T03:35:08.614Z,3.81
2024-01-24T03:45:13.433Z,3.92
2024-01-24T03:55:16.596Z,4.02
2024-01-24T04:05:21.220Z,4.10
2024-01-24T04:15:24.297Z,4.08
2024-01-24T04:25:28.689Z,4.19
2024-01-24T04:35:32.779Z,4.25
2024-01-24T04:45:37.318Z,4.42
2024-01-24T04:55:40.326Z,4.49
2024-01-24T05:05:44.707Z,4.49
2024-01-24T05:15:47.872Z,4.51
2024-01-24T05:25:52.131Z,4.50
2024-01-24T05:35:55.031Z,4.45
2024-01-24T05:46:00.076Z,4.64
2024-01-24T05:56:02.994Z,4.90
2024-01-24T06:06:07.698Z,5.15
2024-01-24T06:16:10.815Z,5.34
2024-01-24T06:26:16.024Z,5.42
2024-01-24T06:36:19.232Z,5.53
2024-01-24T06:46:24.295Z,5.58
2024-01-24T06:56:27.276Z,5.53
2024-01-24T07:06:31.686Z,5.62
2024-01-24T07:16:34.760Z,5.72
2024-01-24T07:26:39.149Z,5.85
2024-01-24T07:36:42.101Z,5.98
2024-01-24T07:46:46.482Z,6.14
2024-01-24T07:56:49.561Z,6.19
2024-01-24T08:06:54.567Z,6.20
2024-01-24T08:17:02.268Z,6.32
2024-01-24T08:27:06.764Z,6.31
2024-01-24T08:37:10.504Z,6.20
2024-01-24T08:47:14.795Z,6.20
2024-01-24T08:57:17.726Z,6.39
2024-01-24T09:07:22.278Z,6.54
2024-01-24T09:17:25.294Z,6.67
2024-01-24T09:27:30.325Z,6.75
2024-01-24T09:37:33.340Z,6.89
2024-01-24T09:47:39.591Z,6.95
2024-01-24T09:57:42.598Z,7.20
2024-01-24T10:07:47.186Z,7.49
2024-01-24T10:17:50.299Z,7.57
2024-01-24T10:27:56.376Z,7.53
2024-01-24T10:37:59.797Z,7.62
2024-01-24T10:48:05.435Z,7.91
2024-01-24T10:58:11.201Z,7.85
2024-01-24T11:08:32.738Z,7.86
2024-01-24T11:18:43.101Z,7.88
2024-01-24T11:28:48.268Z,7.86
2024-01-24T11:38:52.695Z,8.31
2024-01-24T11:49:07.070Z,8.40
2024-01-24T11:59:10.322Z,8.38
2024-01-24T12:09:14.578Z,8.50
2024-01-24T12:19:17.717Z,8.50
2024-01-24T12:29:23.351Z,8.46
2024-01-24T12:39:32.960Z,8.40
2024-01-24T12:49:37.814Z,8.46
2024-01-24T12:59:41.432Z,8.51
2024-01-24T13:09:53.531Z,8.70
2024-01-24T13:19:58.922Z,8.70
2024-01-24T13:30:03.228Z,8.81
2024-01-24T13:40:10.126Z,8.61
2024-01-24T13:50:15.203Z,8.62
2024-01-24T14:00:18.933Z,8.33
2024-01-24T14:10:23.302Z,8.19
2024-01-24T14:20:27.004Z,8.08
2024-01-24T14:30:31.384Z,8.05
2024-01-24T14:40:34.499Z,7.86
2024-01-24T14:50:38.894Z,7.64
2024-01-24T15:00:41.989Z,7.47
2024-01-24T15:10:46.520Z,7.44
2024-01-24T15:20:59.004Z,7.45
2024-01-24T15:31:12.182Z,7.21
2024-01-24T15:41:15.661Z,7.05
2024-01-24T15:51:21.148Z,7.14
2024-01-24T16:01:24.131Z,7.11
2024-01-24T16:11:28.598Z,7.13
2024-01-24T16:21:31.542Z,7.05
2024-01-24T16:31:35.801Z,6.89
2024-01-24T16:41:38.743Z,6.89
2024-01-24T16:51:43.076Z,6.80
2024-01-24T17:01:46.744Z,6.72
2024-01-24T17:11:51.074Z,6.66
2024-01-24T17:21:54.254Z,6.51
2024-01-24T17:31:58.592Z,6.52
2024-01-24T17:42:01.669Z,6.33
2024-01-24T17:52:07.528Z,6.28
2024-01-24T18:02:10.603Z,6.27
2024-01-24T18:12:16.088Z,6.25
2024-01-24T18:22:19.429Z,6.05
2024-01-24T18:32:23.776Z,6.06
2024-01-24T18:42:26.884Z,5.96
2024-01-24T18:52:31.745Z,5.95
2024-01-24T19:02:35.261Z,5.90
2024-01-24T19:12:39.922Z,5.87
2024-01-24T19:22:42.946Z,5.83
2024-01-24T19:32:47.389Z,5.83
2024-01-24T19:42:50.537Z,5.89
2024-01-24T19:52:56.529Z,5.74
2024-01-24T20:02:59.440Z,5.69
2024-01-24T20:13:04.163Z,5.82
2024-01-24T20:23:07.172Z,5.85
2024-01-24T20:33:11.442Z,5.77
2024-01-24T20:43:14.439Z,5.75
2024-01-24T20:53:19.721Z,5.75
2024-01-24T21:03:22.894Z,5.70
2024-01-24T21:13:27.382Z,5.55
2024-01-24T21:23:30.977Z,5.66
2024-01-24T21:33:36.310Z,5.67
2024-01-24T21:43:39.354Z,5.63
2024-01-24T21:53:43.601Z,5.57
2024-01-24T22:03:46.570Z,5.59
2024-01-24T22:13:51.004Z,5.41
2024-01-24T22:23:54.500Z,5.44
2024-01-24T22:33:58.892Z,5.39
2024-01-24T22:44:02.005Z,5.37
2024-01-24T22:54:07.193Z,5.29
2024-01-24T23:04:10.238Z,5.26
2024-01-24T23:14:14.686Z,5.40
2024-01-24T23:24:17.892Z,5.37
2024-01-24T23:34:22.396Z,5.33
2024-01-24T23:44:25.537Z,5.27
2024-01-24T23:54:29.975Z,5.28
